sensor_id;sensor_type;location;lat;lon;timestamp;temperature;humidity
49855;DHT22;35752;52.164;21.244;2023-03-14T00:02:20;9.30;99.90
49855;DHT22;35752;52.164;21.244;2023-03-14T00:04:46;9.30;99.90
49855;DHT22;35752;52.164;21.244;2023-03-14T00:07:12;9.30;99.90
49855;DHT22;35752;52.164;21.244;2023-03-14T00:09:38;9.20;99.90
49855;DHT22;35752;52.164;21.244;2023-03-14T00:12:04;9.10;99.90
49855;DHT22;35752;52.164;21.244;2023-03-14T00:14:31;9.10;99.90
49855;DHT22;35752;52.164;21.244;2023-03-14T00:16:57;9.00;99.90
49855;DHT22;35752;52.164;21.244;2023-03-14T00:19:22;9.00;99.90
49855;DHT22;35752;52.164;21.244;2023-03-14T00:21:48;9.00;99.90
49855;DHT22;35752;52.164;21.244;2023-03-14T00:24:14;8.90;99.90
49855;DHT22;35752;52.164;21.244;2023-03-14T00:26:39;8.90;99.90
49855;DHT22;35752;52.164;21.244;2023-03-14T00:29:05;8.90;99.90
49855;DHT22;35752;52.164;21.244;2023-03-14T00:31:31;8.90;99.90
49855;DHT22;35752;52.164;21.244;2023-03-14T00:33:57;8.80;99.90
49855;DHT22;35752;52.164;21.244;2023-03-14T00:36:23;8.80;99.90
49855;DHT22;35752;52.164;21.244;2023-03-14T00:38:50;8.80;99.90
49855;DHT22;35752;52.164;21.244;2023-03-14T00:41:19;8.80;99.90
49855;DHT22;35752;52.164;21.244;2023-03-14T00:43:45;8.80;99.90
49855;DHT22;35752;52.164;21.244;2023-03-14T00:46:11;8.70;99.90
49855;DHT22;35752;52.164;21.244;2023-03-14T00:48:37;8.70;99.90
49855;DHT22;35752;52.164;21.244;2023-03-14T00:51:04;8.70;99.90
49855;DHT22;35752;52.164;21.244;2023-03-14T00:53:30;8.70;99.90
49855;DHT22;35752;52.164;21.244;2023-03-14T00:55:56;8.70;99.90
49855;DHT22;35752;52.164;21.244;2023-03-14T00:58:22;8.70;99.90
49855;DHT22;35752;52.164;21.244;2023-03-14T01:00:48;8.60;99.90
49855;DHT22;35752;52.164;21.244;2023-03-14T01:03:14;8.60;99.90
49855;DHT22;35752;52.164;21.244;2023-03-14T01:05:40;8.60;99.90
49855;DHT22;35752;52.164;21.244;2023-03-14T01:08:06;8.50;99.90
49855;DHT22;35752;52.164;21.244;2023-03-14T01:10:33;8.60;99.90
49855;DHT22;35752;52.164;21.244;2023-03-14T01:12:59;8.50;99.90
49855;DHT22;35752;52.164;21.244;2023-03-14T01:15:25;8.50;99.90
49855;DHT22;35752;52.164;21.244;2023-03-14T01:17:51;8.50;99.90
49855;DHT22;35752;52.164;21.244;2023-03-14T01:20:17;8.40;99.90
49855;DHT22;35752;52.164;21.244;2023-03-14T01:22:43;8.40;99.90
49855;DHT22;35752;52.164;21.244;2023-03-14T01:25:12;8.40;99.90
49855;DHT22;35752;52.164;21.244;2023-03-14T01:27:38;8.30;99.90
49855;DHT22;35752;52.164;21.244;2023-03-14T01:30:04;8.40;99.90
49855;DHT22;35752;52.164;21.244;2023-03-14T01:32:30;8.40;99.90
49855;DHT22;35752;52.164;21.244;2023-03-14T01:34:56;8.40;99.90
49855;DHT22;35752;52.164;21.244;2023-03-14T01:37:22;8.30;99.90
49855;DHT22;35752;52.164;21.244;2023-03-14T01:39:47;8.30;99.90
49855;DHT22;35752;52.164;21.244;2023-03-14T01:42:14;8.20;99.90
49855;DHT22;35752;52.164;21.244;2023-03-14T01:44:58;8.30;99.90
49855;DHT22;35752;52.164;21.244;2023-03-14T01:47:24;8.30;99.90
49855;DHT22;35752;52.164;21.244;2023-03-14T01:50:03;8.20;99.90
49855;DHT22;35752;52.164;21.244;2023-03-14T01:52:37;8.20;99.90
49855;DHT22;35752;52.164;21.244;2023-03-14T01:55:11;8.10;99.90
49855;DHT22;35752;52.164;21.244;2023-03-14T01:57:56;8.10;99.90
49855;DHT22;35752;52.164;21.244;2023-03-14T02:00:24;8.00;99.90
49855;DHT22;35752;52.164;21.244;2023-03-14T02:03:00;8.00;99.90
49855;DHT22;35752;52.164;21.244;2023-03-14T02:05:30;8.00;99.90
49855;DHT22;35752;52.164;21.244;2023-03-14T02:08:02;7.90;99.90
49855;DHT22;35752;52.164;21.244;2023-03-14T02:10:32;7.90;99.90
49855;DHT22;35752;52.164;21.244;2023-03-14T02:13:00;7.80;99.90
49855;DHT22;35752;52.164;21.244;2023-03-14T02:15:27;7.80;99.90
49855;DHT22;35752;52.164;21.244;2023-03-14T02:17:53;7.80;99.90
49855;DHT22;35752;52.164;21.244;2023-03-14T02:20:34;7.70;99.90
49855;DHT22;35752;52.164;21.244;2023-03-14T02:23:03;7.70;99.90
49855;DHT22;35752;52.164;21.244;2023-03-14T02:25:47;7.60;99.90
49855;DHT22;35752;52.164;21.244;2023-03-14T02:28:14;7.60;99.90
49855;DHT22;35752;52.164;21.244;2023-03-14T02:30:40;7.60;99.90
49855;DHT22;35752;52.164;21.244;2023-03-14T02:33:07;7.50;99.90
49855;DHT22;35752;52.164;21.244;2023-03-14T02:35:57;7.50;99.90
49855;DHT22;35752;52.164;21.244;2023-03-14T02:38:34;7.40;99.90
49855;DHT22;35752;52.164;21.244;2023-03-14T02:41:01;7.40;99.90
49855;DHT22;35752;52.164;21.244;2023-03-14T02:43:27;7.40;99.90
49855;DHT22;35752;52.164;21.244;2023-03-14T02:45:54;7.30;99.90
49855;DHT22;35752;52.164;21.244;2023-03-14T02:48:33;7.30;99.90
49855;DHT22;35752;52.164;21.244;2023-03-14T02:51:01;7.20;99.90
49855;DHT22;35752;52.164;21.244;2023-03-14T02:53:32;7.20;99.90
49855;DHT22;35752;52.164;21.244;2023-03-14T02:55:58;7.10;99.90
49855;DHT22;35752;52.164;21.244;2023-03-14T02:58:26;7.10;99.90
49855;DHT22;35752;52.164;21.244;2023-03-14T03:00:52;7.10;99.90
49855;DHT22;35752;52.164;21.244;2023-03-14T03:03:18;7.10;99.90
49855;DHT22;35752;52.164;21.244;2023-03-14T03:05:51;7.10;99.90
49855;DHT22;35752;52.164;21.244;2023-03-14T03:08:22;7.10;99.90
49855;DHT22;35752;52.164;21.244;2023-03-14T03:10:48;7.10;99.90
49855;DHT22;35752;52.164;21.244;2023-03-14T03:13:14;7.10;99.90
49855;DHT22;35752;52.164;21.244;2023-03-14T03:15:39;7.10;99.90
49855;DHT22;35752;52.164;21.244;2023-03-14T03:18:06;7.10;99.90
49855;DHT22;35752;52.164;21.244;2023-03-14T03:20:32;7.10;99.90
49855;DHT22;35752;52.164;21.244;2023-03-14T03:22:59;7.20;99.90
49855;DHT22;35752;52.164;21.244;2023-03-14T03:25:25;7.20;99.90
49855;DHT22;35752;52.164;21.244;2023-03-14T03:27:50;7.20;99.90
49855;DHT22;35752;52.164;21.244;2023-03-14T03:30:16;7.10;99.90
49855;DHT22;35752;52.164;21.244;2023-03-14T03:32:42;7.10;99.90
49855;DHT22;35752;52.164;21.244;2023-03-14T03:35:08;7.10;99.90
49855;DHT22;35752;52.164;21.244;2023-03-14T03:37:34;7.10;99.90
49855;DHT22;35752;52.164;21.244;2023-03-14T03:40:00;7.10;99.90
49855;DHT22;35752;52.164;21.244;2023-03-14T03:42:28;7.10;99.90
49855;DHT22;35752;52.164;21.244;2023-03-14T03:44:54;7.00;99.90
49855;DHT22;35752;52.164;21.244;2023-03-14T03:47:19;7.00;99.90
49855;DHT22;35752;52.164;21.244;2023-03-14T03:49:45;7.00;99.90
49855;DHT22;35752;52.164;21.244;2023-03-14T03:52:10;7.00;99.90
49855;DHT22;35752;52.164;21.244;2023-03-14T03:54:36;7.00;99.90
49855;DHT22;35752;52.164;21.244;2023-03-14T03:57:02;7.00;99.90
49855;DHT22;35752;52.164;21.244;2023-03-14T03:59:27;7.00;99.90
49855;DHT22;35752;52.164;21.244;2023-03-14T04:01:53;6.90;99.90
49855;DHT22;35752;52.164;21.244;2023-03-14T04:04:19;6.90;99.90
49855;DHT22;35752;52.164;21.244;2023-03-14T04:06:45;7.00;99.90
49855;DHT22;35752;52.164;21.244;2023-03-14T04:09:11;7.00;99.90
49855;DHT22;35752;52.164;21.244;2023-03-14T04:11:37;7.00;99.90
49855;DHT22;35752;52.164;21.244;2023-03-14T04:14:03;7.10;99.90
49855;DHT22;35752;52.164;21.244;2023-03-14T04:16:29;7.10;99.90
49855;DHT22;35752;52.164;21.244;2023-03-14T04:18:57;7.10;99.90
49855;DHT22;35752;52.164;21.244;2023-03-14T04:21:22;7.10;99.90
49855;DHT22;35752;52.164;21.244;2023-03-14T04:23:48;7.10;99.90
49855;DHT22;35752;52.164;21.244;2023-03-14T04:26:14;7.10;99.90
49855;DHT22;35752;52.164;21.244;2023-03-14T04:28:40;7.00;99.90
49855;DHT22;35752;52.164;21.244;2023-03-14T04:31:11;7.00;99.90
49855;DHT22;35752;52.164;21.244;2023-03-14T04:33:37;7.00;99.90
49855;DHT22;35752;52.164;21.244;2023-03-14T04:36:04;7.00;99.90
49855;DHT22;35752;52.164;21.244;2023-03-14T04:38:31;7.00;99.90
49855;DHT22;35752;52.164;21.244;2023-03-14T04:40:57;6.90;99.90
49855;DHT22;35752;52.164;21.244;2023-03-14T04:43:22;6.90;99.90
49855;DHT22;35752;52.164;21.244;2023-03-14T04:45:48;6.90;99.90
49855;DHT22;35752;52.164;21.244;2023-03-14T04:48:14;6.90;99.90
49855;DHT22;35752;52.164;21.244;2023-03-14T04:50:40;6.90;99.90
49855;DHT22;35752;52.164;21.244;2023-03-14T04:53:05;6.90;99.90
49855;DHT22;35752;52.164;21.244;2023-03-14T04:55:32;6.80;99.90
49855;DHT22;35752;52.164;21.244;2023-03-14T04:57:58;6.90;99.90
49855;DHT22;35752;52.164;21.244;2023-03-14T05:00:24;6.90;99.90
49855;DHT22;35752;52.164;21.244;2023-03-14T05:02:50;7.00;99.90
49855;DHT22;35752;52.164;21.244;2023-03-14T05:05:16;7.00;99.90
49855;DHT22;35752;52.164;21.244;2023-03-14T05:07:42;7.00;99.90
49855;DHT22;35752;52.164;21.244;2023-03-14T05:10:08;7.00;99.90
49855;DHT22;35752;52.164;21.244;2023-03-14T05:12:34;7.10;99.90
49855;DHT22;35752;52.164;21.244;2023-03-14T05:14:59;7.10;99.90
49855;DHT22;35752;52.164;21.244;2023-03-14T05:17:25;7.10;99.90
49855;DHT22;35752;52.164;21.244;2023-03-14T05:19:51;7.10;99.90
49855;DHT22;35752;52.164;21.244;2023-03-14T05:22:17;7.20;99.90
49855;DHT22;35752;52.164;21.244;2023-03-14T05:24:43;7.30;99.90
49855;DHT22;35752;52.164;21.244;2023-03-14T05:27:09;7.30;99.90
49855;DHT22;35752;52.164;21.244;2023-03-14T05:29:34;7.30;99.90
49855;DHT22;35752;52.164;21.244;2023-03-14T05:32:00;7.40;99.90
49855;DHT22;35752;52.164;21.244;2023-03-14T05:34:26;7.40;99.90
49855;DHT22;35752;52.164;21.244;2023-03-14T05:36:52;7.40;99.90
49855;DHT22;35752;52.164;21.244;2023-03-14T05:39:17;7.40;99.90
49855;DHT22;35752;52.164;21.244;2023-03-14T05:41:43;7.50;99.90
49855;DHT22;35752;52.164;21.244;2023-03-14T05:44:09;7.50;99.90
49855;DHT22;35752;52.164;21.244;2023-03-14T05:46:34;7.60;99.90
49855;DHT22;35752;52.164;21.244;2023-03-14T05:49:00;7.70;99.90
49855;DHT22;35752;52.164;21.244;2023-03-14T05:51:25;7.80;99.90
49855;DHT22;35752;52.164;21.244;2023-03-14T05:53:51;7.80;99.90
49855;DHT22;35752;52.164;21.244;2023-03-14T05:56:17;7.90;99.90
49855;DHT22;35752;52.164;21.244;2023-03-14T05:58:42;7.90;99.90
49855;DHT22;35752;52.164;21.244;2023-03-14T06:01:08;7.90;99.90
49855;DHT22;35752;52.164;21.244;2023-03-14T06:03:34;8.00;99.90
49855;DHT22;35752;52.164;21.244;2023-03-14T06:06:00;8.10;99.90
49855;DHT22;35752;52.164;21.244;2023-03-14T06:08:26;8.10;99.90
49855;DHT22;35752;52.164;21.244;2023-03-14T06:10:52;8.20;99.90
49855;DHT22;35752;52.164;21.244;2023-03-14T06:13:19;8.30;99.90
49855;DHT22;35752;52.164;21.244;2023-03-14T06:15:44;8.40;99.90
49855;DHT22;35752;52.164;21.244;2023-03-14T06:18:10;8.50;99.90
49855;DHT22;35752;52.164;21.244;2023-03-14T06:20:38;8.70;99.90
49855;DHT22;35752;52.164;21.244;2023-03-14T06:23:08;8.80;99.90
49855;DHT22;35752;52.164;21.244;2023-03-14T06:25:34;9.00;99.90
49855;DHT22;35752;52.164;21.244;2023-03-14T06:28:00;9.20;99.90
49855;DHT22;35752;52.164;21.244;2023-03-14T06:30:27;9.40;99.90
49855;DHT22;35752;52.164;21.244;2023-03-14T06:32:52;9.50;99.90
49855;DHT22;35752;52.164;21.244;2023-03-14T06:35:18;9.60;99.90
49855;DHT22;35752;52.164;21.244;2023-03-14T06:37:44;9.60;99.90
49855;DHT22;35752;52.164;21.244;2023-03-14T06:40:10;9.60;99.90
49855;DHT22;35752;52.164;21.244;2023-03-14T06:42:37;9.50;99.90
49855;DHT22;35752;52.164;21.244;2023-03-14T06:45:03;9.40;99.90
49855;DHT22;35752;52.164;21.244;2023-03-14T06:47:29;9.40;99.90
49855;DHT22;35752;52.164;21.244;2023-03-14T06:49:55;9.40;99.90
49855;DHT22;35752;52.164;21.244;2023-03-14T06:52:20;9.50;99.90
49855;DHT22;35752;52.164;21.244;2023-03-14T06:54:46;9.50;99.90
49855;DHT22;35752;52.164;21.244;2023-03-14T06:57:12;9.60;99.90
49855;DHT22;35752;52.164;21.244;2023-03-14T06:59:37;9.60;99.90
49855;DHT22;35752;52.164;21.244;2023-03-14T07:02:03;9.70;99.90
49855;DHT22;35752;52.164;21.244;2023-03-14T07:04:29;9.70;99.90
49855;DHT22;35752;52.164;21.244;2023-03-14T07:06:54;9.80;99.90
49855;DHT22;35752;52.164;21.244;2023-03-14T07:09:20;9.90;99.90
49855;DHT22;35752;52.164;21.244;2023-03-14T07:11:46;10.00;99.90
49855;DHT22;35752;52.164;21.244;2023-03-14T07:14:11;10.10;99.90
49855;DHT22;35752;52.164;21.244;2023-03-14T07:16:37;10.10;99.90
49855;DHT22;35752;52.164;21.244;2023-03-14T07:19:03;10.20;99.90
49855;DHT22;35752;52.164;21.244;2023-03-14T07:21:29;10.30;99.90
49855;DHT22;35752;52.164;21.244;2023-03-14T07:23:55;10.40;99.90
49855;DHT22;35752;52.164;21.244;2023-03-14T07:26:20;10.40;99.90
49855;DHT22;35752;52.164;21.244;2023-03-14T07:28:46;10.60;99.90
49855;DHT22;35752;52.164;21.244;2023-03-14T07:31:12;10.70;99.90
49855;DHT22;35752;52.164;21.244;2023-03-14T07:33:38;10.80;99.90
49855;DHT22;35752;52.164;21.244;2023-03-14T07:36:04;10.90;99.90
49855;DHT22;35752;52.164;21.244;2023-03-14T07:38:30;10.90;99.90
49855;DHT22;35752;52.164;21.244;2023-03-14T07:41:00;11.00;99.90
49855;DHT22;35752;52.164;21.244;2023-03-14T07:43:26;11.00;99.90
49855;DHT22;35752;52.164;21.244;2023-03-14T07:45:52;11.10;99.90
49855;DHT22;35752;52.164;21.244;2023-03-14T07:48:18;11.20;99.90
49855;DHT22;35752;52.164;21.244;2023-03-14T07:50:44;11.30;99.90
49855;DHT22;35752;52.164;21.244;2023-03-14T07:53:13;11.50;99.90
49855;DHT22;35752;52.164;21.244;2023-03-14T07:55:40;11.70;99.90
49855;DHT22;35752;52.164;21.244;2023-03-14T07:58:05;11.90;99.40
49855;DHT22;35752;52.164;21.244;2023-03-14T08:00:31;12.10;98.50
49855;DHT22;35752;52.164;21.244;2023-03-14T08:02:58;12.30;97.60
49855;DHT22;35752;52.164;21.244;2023-03-14T08:05:24;12.40;97.40
49855;DHT22;35752;52.164;21.244;2023-03-14T08:07:49;12.40;97.20
49855;DHT22;35752;52.164;21.244;2023-03-14T08:10:15;12.60;97.30
49855;DHT22;35752;52.164;21.244;2023-03-14T08:12:57;12.70;96.40
49855;DHT22;35752;52.164;21.244;2023-03-14T08:15:24;12.80;95.70
49855;DHT22;35752;52.164;21.244;2023-03-14T08:17:50;13.00;95.50
49855;DHT22;35752;52.164;21.244;2023-03-14T08:20:25;13.00;95.10
49855;DHT22;35752;52.164;21.244;2023-03-14T08:28:09;13.40;93.80
49855;DHT22;35752;52.164;21.244;2023-03-14T08:30:35;13.50;93.20
49855;DHT22;35752;52.164;21.244;2023-03-14T08:33:00;13.70;92.70
49855;DHT22;35752;52.164;21.244;2023-03-14T08:35:27;13.70;92.00
49855;DHT22;35752;52.164;21.244;2023-03-14T08:37:52;13.80;92.20
49855;DHT22;35752;52.164;21.244;2023-03-14T08:40:18;13.90;92.00
49855;DHT22;35752;52.164;21.244;2023-03-14T08:42:44;14.00;91.40
49855;DHT22;35752;52.164;21.244;2023-03-14T08:45:13;14.00;91.10
49855;DHT22;35752;52.164;21.244;2023-03-14T08:47:38;14.00;90.60
49855;DHT22;35752;52.164;21.244;2023-03-14T08:50:06;14.00;90.40
49855;DHT22;35752;52.164;21.244;2023-03-14T08:52:32;14.00;89.20
49855;DHT22;35752;52.164;21.244;2023-03-14T08:54:58;14.10;88.20
49855;DHT22;35752;52.164;21.244;2023-03-14T08:57:24;14.10;88.50
49855;DHT22;35752;52.164;21.244;2023-03-14T08:59:53;14.30;88.90
49855;DHT22;35752;52.164;21.244;2023-03-14T09:02:20;14.60;88.80
49855;DHT22;35752;52.164;21.244;2023-03-14T09:04:46;14.70;87.40
49855;DHT22;35752;52.164;21.244;2023-03-14T09:07:12;14.80;85.70
49855;DHT22;35752;52.164;21.244;2023-03-14T09:09:37;15.10;84.20
49855;DHT22;35752;52.164;21.244;2023-03-14T09:12:03;15.10;83.30
49855;DHT22;35752;52.164;21.244;2023-03-14T09:14:30;15.30;84.20
49855;DHT22;35752;52.164;21.244;2023-03-14T09:16:57;15.40;82.20
49855;DHT22;35752;52.164;21.244;2023-03-14T09:19:23;15.30;82.30
49855;DHT22;35752;52.164;21.244;2023-03-14T09:21:49;15.20;81.10
49855;DHT22;35752;52.164;21.244;2023-03-14T09:24:15;15.20;81.60
49855;DHT22;35752;52.164;21.244;2023-03-14T09:26:40;15.40;81.90
49855;DHT22;35752;52.164;21.244;2023-03-14T09:29:06;15.40;80.50
49855;DHT22;35752;52.164;21.244;2023-03-14T09:31:32;15.40;80.40
49855;DHT22;35752;52.164;21.244;2023-03-14T09:33:57;15.30;80.30
49855;DHT22;35752;52.164;21.244;2023-03-14T09:36:23;15.20;81.10
49855;DHT22;35752;52.164;21.244;2023-03-14T09:38:48;15.10;81.10
49855;DHT22;35752;52.164;21.244;2023-03-14T09:41:35;15.00;81.10
49855;DHT22;35752;52.164;21.244;2023-03-14T09:44:06;14.90;82.30
49855;DHT22;35752;52.164;21.244;2023-03-14T09:46:36;14.80;82.20
49855;DHT22;35752;52.164;21.244;2023-03-14T09:49:16;14.80;82.40
49855;DHT22;35752;52.164;21.244;2023-03-14T09:51:45;14.80;82.50
49855;DHT22;35752;52.164;21.244;2023-03-14T09:55:05;15.00;81.70
49855;DHT22;35752;52.164;21.244;2023-03-14T09:57:08;15.10;82.50
49855;DHT22;35752;52.164;21.244;2023-03-14T09:59:36;15.20;82.40
49855;DHT22;35752;52.164;21.244;2023-03-14T10:02:15;15.30;81.00
49855;DHT22;35752;52.164;21.244;2023-03-14T10:04:42;15.40;82.10
49855;DHT22;35752;52.164;21.244;2023-03-14T10:07:23;15.50;82.10
49855;DHT22;35752;52.164;21.244;2023-03-14T10:09:51;15.60;81.40
49855;DHT22;35752;52.164;21.244;2023-03-14T10:12:18;15.80;81.30
49855;DHT22;35752;52.164;21.244;2023-03-14T10:14:51;16.00;80.90
49855;DHT22;35752;52.164;21.244;2023-03-14T10:17:20;16.00;79.40
49855;DHT22;35752;52.164;21.244;2023-03-14T10:19:57;16.00;78.80
49855;DHT22;35752;52.164;21.244;2023-03-14T10:22:29;16.10;79.30
49855;DHT22;35752;52.164;21.244;2023-03-14T10:25:03;16.00;79.50
49855;DHT22;35752;52.164;21.244;2023-03-14T10:27:31;15.90;79.00
49855;DHT22;35752;52.164;21.244;2023-03-14T10:30:00;15.90;79.60
49855;DHT22;35752;52.164;21.244;2023-03-14T10:32:34;16.00;78.90
49855;DHT22;35752;52.164;21.244;2023-03-14T10:37:34;16.20;78.80
49855;DHT22;35752;52.164;21.244;2023-03-14T10:40:01;16.30;78.20
49855;DHT22;35752;52.164;21.244;2023-03-14T10:42:33;16.30;79.20
49855;DHT22;35752;52.164;21.244;2023-03-14T10:47:55;16.40;79.70
49855;DHT22;35752;52.164;21.244;2023-03-14T10:50:30;16.60;78.20
49855;DHT22;35752;52.164;21.244;2023-03-14T10:52:59;16.50;76.50
49855;DHT22;35752;52.164;21.244;2023-03-14T10:55:26;16.70;77.40
49855;DHT22;35752;52.164;21.244;2023-03-14T10:57:52;16.40;75.60
49855;DHT22;35752;52.164;21.244;2023-03-14T11:00:20;16.30;76.80
49855;DHT22;35752;52.164;21.244;2023-03-14T11:03:19;16.30;77.20
49855;DHT22;35752;52.164;21.244;2023-03-14T11:11:02;15.80;77.50
49855;DHT22;35752;52.164;21.244;2023-03-14T11:22:38;15.40;78.70
49855;DHT22;35752;52.164;21.244;2023-03-14T11:27:42;15.30;78.70
49855;DHT22;35752;52.164;21.244;2023-03-14T11:30:17;15.30;78.60
49855;DHT22;35752;52.164;21.244;2023-03-14T11:35:30;15.30;78.80
49855;DHT22;35752;52.164;21.244;2023-03-14T11:40:53;15.60;78.80
49855;DHT22;35752;52.164;21.244;2023-03-14T11:43:34;15.80;78.40
49855;DHT22;35752;52.164;21.244;2023-03-14T11:46:26;16.00;77.70
49855;DHT22;35752;52.164;21.244;2023-03-14T11:51:35;16.50;76.60
49855;DHT22;35752;52.164;21.244;2023-03-14T11:54:16;16.70;77.40
49855;DHT22;35752;52.164;21.244;2023-03-14T11:56:48;16.70;76.80
49855;DHT22;35752;52.164;21.244;2023-03-14T11:59:21;16.70;75.60
49855;DHT22;35752;52.164;21.244;2023-03-14T12:01:59;16.50;76.90
49855;DHT22;35752;52.164;21.244;2023-03-14T12:04:42;16.30;76.40
49855;DHT22;35752;52.164;21.244;2023-03-14T12:07:19;16.20;76.80
49855;DHT22;35752;52.164;21.244;2023-03-14T12:09:48;15.90;77.60
49855;DHT22;35752;52.164;21.244;2023-03-14T12:12:20;15.80;77.80
49855;DHT22;35752;52.164;21.244;2023-03-14T12:14:54;15.70;78.40
49855;DHT22;35752;52.164;21.244;2023-03-14T12:17:26;15.60;78.90
49855;DHT22;35752;52.164;21.244;2023-03-14T12:22:36;15.60;79.10
49855;DHT22;35752;52.164;21.244;2023-03-14T12:25:18;15.60;79.60
49855;DHT22;35752;52.164;21.244;2023-03-14T12:27:47;15.70;79.60
49855;DHT22;35752;52.164;21.244;2023-03-14T12:30:27;15.70;79.30
49855;DHT22;35752;52.164;21.244;2023-03-14T12:35:57;15.60;79.30
49855;DHT22;35752;52.164;21.244;2023-03-14T12:41:15;15.90;80.00
49855;DHT22;35752;52.164;21.244;2023-03-14T12:43:42;16.00;79.10
49855;DHT22;35752;52.164;21.244;2023-03-14T12:46:28;16.00;79.10
49855;DHT22;35752;52.164;21.244;2023-03-14T12:51:41;15.80;79.30
49855;DHT22;35752;52.164;21.244;2023-03-14T12:54:34;15.80;80.00
49855;DHT22;35752;52.164;21.244;2023-03-14T12:59:59;15.90;80.10
49855;DHT22;35752;52.164;21.244;2023-03-14T13:02:39;15.80;80.00
49855;DHT22;35752;52.164;21.244;2023-03-14T13:15:37;15.20;81.80
49855;DHT22;35752;52.164;21.244;2023-03-14T13:18:13;15.10;82.50
49855;DHT22;35752;52.164;21.244;2023-03-14T13:20:52;15.00;83.20
49855;DHT22;35752;52.164;21.244;2023-03-14T13:23:30;14.90;84.70
49855;DHT22;35752;52.164;21.244;2023-03-14T13:25:56;14.90;85.20
49855;DHT22;35752;52.164;21.244;2023-03-14T13:28:23;14.70;86.30
49855;DHT22;35752;52.164;21.244;2023-03-14T13:30:50;14.50;91.10
49855;DHT22;35752;52.164;21.244;2023-03-14T13:33:22;14.30;92.10
49855;DHT22;35752;52.164;21.244;2023-03-14T13:35:58;14.20;94.40
49855;DHT22;35752;52.164;21.244;2023-03-14T13:38:26;14.20;96.50
49855;DHT22;35752;52.164;21.244;2023-03-14T13:40:55;14.20;97.90
49855;DHT22;35752;52.164;21.244;2023-03-14T13:43:28;14.10;98.90
49855;DHT22;35752;52.164;21.244;2023-03-14T13:46:05;14.00;99.90
49855;DHT22;35752;52.164;21.244;2023-03-14T13:48:33;13.80;99.90
49855;DHT22;35752;52.164;21.244;2023-03-14T13:51:04;13.70;99.90
49855;DHT22;35752;52.164;21.244;2023-03-14T13:53:31;13.40;99.90
49855;DHT22;35752;52.164;21.244;2023-03-14T13:56:02;13.40;99.90
49855;DHT22;35752;52.164;21.244;2023-03-14T13:58:30;13.30;99.90
49855;DHT22;35752;52.164;21.244;2023-03-14T14:00:59;13.30;99.90
49855;DHT22;35752;52.164;21.244;2023-03-14T14:03:26;13.20;99.90
49855;DHT22;35752;52.164;21.244;2023-03-14T14:05:55;13.10;99.90
49855;DHT22;35752;52.164;21.244;2023-03-14T14:08:21;13.00;99.90
49855;DHT22;35752;52.164;21.244;2023-03-14T14:10:48;13.00;99.90
49855;DHT22;35752;52.164;21.244;2023-03-14T14:13:17;12.90;99.90
49855;DHT22;35752;52.164;21.244;2023-03-14T14:15:47;12.90;99.90
49855;DHT22;35752;52.164;21.244;2023-03-14T14:18:17;12.80;99.90
49855;DHT22;35752;52.164;21.244;2023-03-14T14:20:45;12.70;99.90
49855;DHT22;35752;52.164;21.244;2023-03-14T14:23:17;12.60;99.90
49855;DHT22;35752;52.164;21.244;2023-03-14T14:25:45;12.60;99.90
49855;DHT22;35752;52.164;21.244;2023-03-14T14:30:41;12.60;99.90
49855;DHT22;35752;52.164;21.244;2023-03-14T14:36:21;12.50;99.90
49855;DHT22;35752;52.164;21.244;2023-03-14T14:41:34;12.40;99.90
49855;DHT22;35752;52.164;21.244;2023-03-14T14:44:02;12.30;99.90
49855;DHT22;35752;52.164;21.244;2023-03-14T14:46:31;12.20;99.90
49855;DHT22;35752;52.164;21.244;2023-03-14T14:49:02;12.20;99.90
49855;DHT22;35752;52.164;21.244;2023-03-14T14:51:34;12.20;99.90
49855;DHT22;35752;52.164;21.244;2023-03-14T14:54:10;12.20;99.90
49855;DHT22;35752;52.164;21.244;2023-03-14T14:56:37;12.20;99.90
49855;DHT22;35752;52.164;21.244;2023-03-14T14:59:04;12.10;99.90
49855;DHT22;35752;52.164;21.244;2023-03-14T15:01:37;12.10;99.90
49855;DHT22;35752;52.164;21.244;2023-03-14T15:04:10;12.00;99.90
49855;DHT22;35752;52.164;21.244;2023-03-14T15:06:37;12.10;99.90
49855;DHT22;35752;52.164;21.244;2023-03-14T15:09:04;12.10;99.90
49855;DHT22;35752;52.164;21.244;2023-03-14T15:11:30;12.10;99.90
49855;DHT22;35752;52.164;21.244;2023-03-14T15:13:55;12.00;99.90
49855;DHT22;35752;52.164;21.244;2023-03-14T15:16:28;12.00;99.90
49855;DHT22;35752;52.164;21.244;2023-03-14T15:18:56;12.00;99.90
49855;DHT22;35752;52.164;21.244;2023-03-14T15:21:23;12.00;99.90
49855;DHT22;35752;52.164;21.244;2023-03-14T15:23:50;11.80;99.90
49855;DHT22;35752;52.164;21.244;2023-03-14T15:26:24;11.80;99.90
49855;DHT22;35752;52.164;21.244;2023-03-14T15:28:50;11.70;99.90
49855;DHT22;35752;52.164;21.244;2023-03-14T15:31:17;11.70;99.90
49855;DHT22;35752;52.164;21.244;2023-03-14T15:33:44;11.50;99.90
49855;DHT22;35752;52.164;21.244;2023-03-14T15:38:47;11.50;99.90
49855;DHT22;35752;52.164;21.244;2023-03-14T15:41:13;11.40;99.90
49855;DHT22;35752;52.164;21.244;2023-03-14T15:43:40;11.40;99.90
49855;DHT22;35752;52.164;21.244;2023-03-14T15:46:09;11.40;99.90
49855;DHT22;35752;52.164;21.244;2023-03-14T15:48:35;11.40;99.90
49855;DHT22;35752;52.164;21.244;2023-03-14T15:51:00;11.50;99.90
49855;DHT22;35752;52.164;21.244;2023-03-14T15:53:26;11.50;99.90
49855;DHT22;35752;52.164;21.244;2023-03-14T15:55:52;11.40;99.90
49855;DHT22;35752;52.164;21.244;2023-03-14T15:58:18;11.30;99.90
49855;DHT22;35752;52.164;21.244;2023-03-14T16:00:44;11.40;99.90
49855;DHT22;35752;52.164;21.244;2023-03-14T16:03:10;11.40;99.90
49855;DHT22;35752;52.164;21.244;2023-03-14T16:05:41;11.40;99.90
49855;DHT22;35752;52.164;21.244;2023-03-14T16:08:07;11.40;99.90
49855;DHT22;35752;52.164;21.244;2023-03-14T16:10:33;11.20;99.90
49855;DHT22;35752;52.164;21.244;2023-03-14T16:12:59;11.30;99.90
49855;DHT22;35752;52.164;21.244;2023-03-14T16:15:25;11.20;99.90
49855;DHT22;35752;52.164;21.244;2023-03-14T16:17:54;11.20;99.90
49855;DHT22;35752;52.164;21.244;2023-03-14T16:20:21;11.20;99.90
49855;DHT22;35752;52.164;21.244;2023-03-14T16:22:47;11.20;99.90
49855;DHT22;35752;52.164;21.244;2023-03-14T16:25:13;11.20;99.90
49855;DHT22;35752;52.164;21.244;2023-03-14T16:27:39;11.20;99.90
49855;DHT22;35752;52.164;21.244;2023-03-14T16:30:05;11.20;99.90
49855;DHT22;35752;52.164;21.244;2023-03-14T16:32:31;11.20;99.90
49855;DHT22;35752;52.164;21.244;2023-03-14T16:34:57;11.20;99.90
49855;DHT22;35752;52.164;21.244;2023-03-14T16:37:25;11.20;99.90
49855;DHT22;35752;52.164;21.244;2023-03-14T16:39:52;11.10;99.90
49855;DHT22;35752;52.164;21.244;2023-03-14T16:42:18;11.10;99.90